Letona, Arkansas
Current Conditions -  °F | °C
As of 9:12 PM on Thursday 18 Dec 2014 (Local Time) from KSRC Reporting Station
Haze Haze  
Wind Chill:   Ceiling: 700
Heat Index:   Visibility: 5mi
Dew Point:   Wind: 5mph
Humidity: 93%   Direction: 40°NE
Pressure: 30.27"   Gusts: NA
Location:  35.36°N, 91.83°W
Report Text: KSRC 190312Z AUTO 04004KT 5SM BR OVC007 05/04 A3027 RMK AO2 TSNO
Loading
Personal Weather Stations






























Interactive Weather Map New forecast layout! Learn more

10-Day Weather Forecast

Advertisements
Track Severe Weather on mobile